• Join FlightAware (Why Join?)
  • Login
  • US Flag 
03:06AM EDT


 

Airport Tracker/Info


-or-


 

Live Flight TrackerFlight Track Log ✈ AFR6228 ✈ 30-Jul-2013 ✈ LFPO / ORY - LFMN / NCE

Flight Track Log - Related Links

Times and Time Zones

All times are in EDT time to prevent confusion due to time zone crossing. See the AFR6228 flight status page for this flight to view local times or setup timezone preferences in your user account.

Time Position Orientation Groundspeed Altitude Reporting Facility
EDT Latitude Longitude Course Direction KTS MPH feet Rate Location/Type
05:57AM 47.9798 3.1470 145° Southeast  Level Estimated
05:58AM 47.9174 3.2116 145° Southeast  Level Estimated
05:59AM 47.8550 3.2760 145° Southeast  Level Estimated
06:00AM 47.7926 3.3403 145° Southeast  Level Estimated
06:01AM 47.7301 3.4044 145° Southeast  Level Estimated
06:02AM 47.6676 3.4684 145° Southeast  Level Estimated
06:03AM 47.6051 3.5322 145° Southeast  Level Estimated
06:04AM 47.5425 3.5959 146° Southeast  Level Estimated
06:05AM 47.4799 3.6594 146° Southeast  Level Estimated
06:06AM 47.4172 3.7228 146° Southeast  Level Estimated
06:07AM 47.3545 3.7860 146° Southeast  Level Estimated
06:08AM 47.2918 3.8491 146° Southeast  Level Estimated
06:09AM 47.2291 3.9120 146° Southeast  Level Estimated
06:10AM 47.1663 3.9748 146° Southeast  Level Estimated
06:11AM 47.1035 4.0374 146° Southeast  Level Estimated
06:12AM 47.0406 4.0999 146° Southeast  Level Estimated
06:13AM 46.9777 4.1622 146° Southeast  Level Estimated
06:14AM 46.9148 4.2244 146° Southeast  Level Estimated
06:15AM 46.8518 4.2864 146° Southeast  Level Estimated
06:16AM 46.7888 4.3483 146° Southeast  Level Estimated
06:17AM 46.7258 4.4100 146° Southeast  Level Estimated
06:18AM 46.6628 4.4716 146° Southeast  Level Estimated
06:19AM 46.5997 4.5331 146° Southeast  Level Estimated
06:20AM 46.5366 4.5944 146° Southeast  Level Estimated
06:21AM 46.4734 4.6556 146° Southeast  Level Estimated
06:22AM 46.4102 4.7166 146° Southeast  Level Estimated
06:23AM 46.3470 4.7775 146° Southeast  Level Estimated
06:24AM 46.2837 4.8382 146° Southeast  Level Estimated
06:25AM 46.2163 4.9029 146° Southeast  Level Estimated
06:26AM 46.1487 4.9674 147° Southeast  Level Estimated
06:27AM 46.0811 5.0317 147° Southeast  Level Estimated
06:28AM 46.0135 5.0958 147° Southeast  Level Estimated
06:29AM 45.9459 5.1599 147° Southeast  Level Estimated
06:30AM 45.8782 5.2237 147° Southeast  Level Estimated
06:31AM 45.8105 5.2874 147° Southeast  Level Estimated
06:32AM 45.7427 5.3510 147° Southeast  Level Estimated
06:33AM 45.6749 5.4144 147° Southeast  Level Estimated
06:34AM 45.6071 5.4776 147° Southeast  Level Estimated
06:35AM 45.5392 5.5407 147° Southeast  Level Estimated
06:36AM 45.4714 5.6036 147° Southeast  Level Estimated
06:37AM 45.4034 5.6664 147° Southeast  Level Estimated
06:38AM 45.3355 5.7290 147° Southeast  Level Estimated
06:39AM 45.2675 5.7915 147° Southeast  Level Estimated
06:40AM 45.1994 5.8538 147° Southeast  Level Estimated
06:41AM 45.1314 5.9160 147° Southeast  Level Estimated
06:42AM 45.0633 5.9781 147° Southeast  Level Estimated
06:43AM 44.9951 6.0399 147° Southeast  Level Estimated
06:44AM 44.9270 6.1017 147° Southeast  Level Estimated
06:45AM 44.8588 6.1633 147° Southeast  Level Estimated
06:46AM 44.7905 6.2247 147° Southeast  Level Estimated
06:47AM 44.7223 6.2860 147° Southeast  Level Estimated
06:48AM 44.6540 6.3472 147° Southeast  Level Estimated
06:49AM 44.5856 6.4082 148° Southeast  Level Estimated
06:50AM 44.5173 6.4691 148° Southeast  Level Estimated
06:51AM 44.4489 6.5298 148° Southeast  Level Estimated
06:52AM 44.3805 6.5904 148° Southeast  Level Estimated
06:53AM 44.3120 6.6508 148° Southeast  Level Estimated
06:54AM 44.2435 6.7111 148° Southeast  Level Estimated
06:55AM 44.1750 6.7713 148° Southeast  Level Estimated
06:56AM 44.1064 6.8313 148° Southeast  Level Estimated
06:57AM 44.0379 6.8912 148° Southeast  Level Estimated
06:58AM 43.9692 6.9509 148° Southeast  Level Estimated
06:59AM 43.9006 7.0105 148° Southeast  Level Estimated
07:00AM 43.8280 7.0733 148° Southeast  Level Estimated
07:01AM 43.7555 7.1360 148° Southeast  Level Estimated
07:02AM 43.6828 7.1985 148° Southeast  Level Estimated
07:03AM 43.6607 7.2176 148° Southeast  Level Estimated
07:04AM 43.6607 7.2176 144° Southeast  Level Estimated
07:05AM 43.6607 7.2176 144° Southeast  Level Estimated
07:06AM 43.6607 7.2176 144° Southeast  Level Estimated
07:07AM 43.6607 7.2176 144° Southeast  Level Estimated
07:08AM 43.6607 7.2176 144° Southeast  Level Estimated
07:09AM 43.6607 7.2176 144° Southeast  Level Estimated
07:10AM 43.6607 7.2176 144° Southeast  Level Estimated
07:11AM 43.6607 7.2176 144° Southeast  Level Estimated
07:12AM 43.6607 7.2176 144° Southeast  Level Estimated